createdAt,value
2023-12-19T00:04:34.872Z,10.50
2023-12-19T00:09:36.910Z,10.57
2023-12-19T00:14:39.520Z,10.58
2023-12-19T00:19:42.139Z,10.60
2023-12-19T00:24:44.371Z,10.64
2023-12-19T00:29:46.437Z,10.70
2023-12-19T00:34:48.707Z,10.79
2023-12-19T00:39:50.935Z,10.82
2023-12-19T00:44:53.326Z,10.84
2023-12-19T00:49:56.230Z,10.84
2023-12-19T00:54:58.444Z,10.84
2023-12-19T01:00:01.269Z,10.84
2023-12-19T01:05:04.113Z,10.84
2023-12-19T01:10:06.734Z,10.87
2023-12-19T01:15:09.544Z,10.92
2023-12-19T01:20:11.736Z,10.94
2023-12-19T01:25:13.698Z,10.96
2023-12-19T01:30:15.963Z,10.98
2023-12-19T01:35:18.389Z,11.00
2023-12-19T01:40:20.994Z,11.00
2023-12-19T01:45:26.713Z,11.03
2023-12-19T01:50:30.617Z,11.01
2023-12-19T01:55:32.861Z,10.95
2023-12-19T02:00:37.758Z,10.92
2023-12-19T02:05:42.706Z,10.85
2023-12-19T02:10:44.981Z,10.79
2023-12-19T02:15:49.513Z,10.77
2023-12-19T02:20:51.863Z,10.72
2023-12-19T02:25:54.656Z,10.69
2023-12-19T02:30:56.834Z,10.66
2023-12-19T02:35:58.835Z,10.62
2023-12-19T02:41:00.810Z,10.58
2023-12-19T02:46:03.154Z,10.53
2023-12-19T02:51:05.367Z,10.51
2023-12-19T02:56:07.730Z,10.46
2023-12-19T03:01:10.273Z,10.41
2023-12-19T03:06:16.442Z,10.37
2023-12-19T03:11:18.924Z,10.34
2023-12-19T03:16:21.141Z,10.33
2023-12-19T03:21:23.715Z,10.30
2023-12-19T03:26:25.636Z,10.28
2023-12-19T03:31:27.826Z,10.26
2023-12-19T03:36:32.888Z,10.25
2023-12-19T03:41:34.935Z,10.23
2023-12-19T03:46:37.025Z,10.23
2023-12-19T03:51:39.155Z,10.19
2023-12-19T03:56:42.496Z,10.18
2023-12-19T04:01:46.331Z,10.17
2023-12-19T04:06:48.490Z,10.13
2023-12-19T04:11:51.076Z,10.11
2023-12-19T04:16:53.472Z,10.12
2023-12-19T04:21:58.060Z,10.14
2023-12-19T04:27:00.194Z,10.16
2023-12-19T04:32:02.254Z,10.16
2023-12-19T04:37:04.740Z,10.18
2023-12-19T04:42:10.037Z,10.19
2023-12-19T04:47:12.222Z,10.21
2023-12-19T04:52:14.333Z,10.23
2023-12-19T04:57:16.586Z,10.26
2023-12-19T05:02:18.781Z,10.29
2023-12-19T05:07:21.176Z,10.28
2023-12-19T05:12:24.662Z,10.27
2023-12-19T05:17:26.690Z,10.23
2023-12-19T05:22:30.224Z,10.20
2023-12-19T05:27:32.329Z,10.15
2023-12-19T05:32:34.431Z,10.09
2023-12-19T05:37:36.859Z,10.03
2023-12-19T05:42:39.107Z,9.95
2023-12-19T05:47:41.168Z,9.92
2023-12-19T05:52:43.525Z,9.89
2023-12-19T05:57:50.456Z,9.88
2023-12-19T06:02:55.995Z,9.83
2023-12-19T06:08:02.230Z,9.78
2023-12-19T06:13:06.456Z,9.71
2023-12-19T06:18:09.210Z,9.66
2023-12-19T06:23:11.487Z,9.64
2023-12-19T06:28:16.354Z,9.63
2023-12-19T06:33:18.690Z,9.58
2023-12-19T06:38:21.117Z,9.53
2023-12-19T06:43:23.180Z,9.50
2023-12-19T06:48:25.201Z,9.51
2023-12-19T06:53:27.203Z,9.50
2023-12-19T06:58:29.523Z,9.51
2023-12-19T07:03:31.587Z,9.49
2023-12-19T07:08:40.631Z,9.47
2023-12-19T07:13:48.818Z,9.47
2023-12-19T07:18:52.291Z,9.44
2023-12-19T07:23:55.943Z,9.43
2023-12-19T07:29:00.296Z,9.42
2023-12-19T07:34:08.374Z,9.41
2023-12-19T07:39:13.896Z,9.41
2023-12-19T07:44:17.784Z,9.40
2023-12-19T07:49:20.539Z,9.37
2023-12-19T07:54:22.860Z,9.35
2023-12-19T07:59:24.902Z,9.36
2023-12-19T08:04:27.057Z,9.38
2023-12-19T08:09:30.838Z,9.40
2023-12-19T08:14:34.337Z,9.43
2023-12-19T08:19:39.301Z,9.48
2023-12-19T08:24:41.478Z,9.50
2023-12-19T08:29:45.684Z,9.53
2023-12-19T08:34:47.818Z,9.55
2023-12-19T08:39:55.972Z,9.56
2023-12-19T08:44:58.244Z,9.57
2023-12-19T08:50:02.616Z,9.58
2023-12-19T08:55:09.523Z,9.59
2023-12-19T09:00:21.607Z,9.63
2023-12-19T09:05:23.878Z,9.63
2023-12-19T09:10:26.206Z,9.66
2023-12-19T09:15:28.370Z,9.72
2023-12-19T09:20:31.545Z,9.78
2023-12-19T09:25:33.894Z,9.82
2023-12-19T09:30:36.548Z,9.85
2023-12-19T09:35:39.013Z,9.88
2023-12-19T09:40:41.639Z,9.94
2023-12-19T09:45:45.351Z,10.02
2023-12-19T09:50:48.386Z,10.13
2023-12-19T09:55:50.755Z,10.23
2023-12-19T10:00:54.623Z,10.33
2023-12-19T10:05:59.753Z,10.40
2023-12-19T10:11:01.685Z,10.40
2023-12-19T10:16:30.324Z,10.36
2023-12-19T10:21:33.989Z,10.35
2023-12-19T10:26:36.471Z,10.34
2023-12-19T10:31:40.002Z,10.33
2023-12-19T10:36:41.997Z,10.29
2023-12-19T10:41:43.948Z,10.26
2023-12-19T10:46:47.093Z,10.27
2023-12-19T10:51:55.615Z,10.29
2023-12-19T10:57:12.816Z,10.31
2023-12-19T11:02:36.636Z,10.31
2023-12-19T11:07:42.468Z,10.29
2023-12-19T11:12:46.942Z,10.30
2023-12-19T11:17:49.309Z,10.31
2023-12-19T11:23:47.626Z,10.31
2023-12-19T11:28:49.641Z,10.29
2023-12-19T11:33:51.914Z,10.28
2023-12-19T11:39:23.187Z,10.25
2023-12-19T11:44:35.156Z,10.24
2023-12-19T11:49:39.094Z,10.26
2023-12-19T11:54:43.415Z,10.33
2023-12-19T11:59:50.946Z,10.38
2023-12-19T12:05:20.157Z,10.42
2023-12-19T12:10:24.539Z,10.46
2023-12-19T12:15:27.496Z,10.47
2023-12-19T12:20:33.721Z,10.55
2023-12-19T12:25:36.009Z,10.61
2023-12-19T12:30:40.030Z,10.67
2023-12-19T12:35:42.218Z,10.71
2023-12-19T12:41:11.423Z,10.75
2023-12-19T12:46:15.700Z,10.78
2023-12-19T12:51:18.480Z,10.82
2023-12-19T12:56:20.460Z,10.85
2023-12-19T13:01:22.521Z,10.87
2023-12-19T13:06:26.137Z,10.91
2023-12-19T13:11:28.296Z,10.94
2023-12-19T13:16:30.274Z,10.94
2023-12-19T13:21:33.628Z,10.94
2023-12-19T13:26:35.622Z,10.96
2023-12-19T13:31:39.097Z,10.95
2023-12-19T13:36:44.668Z,10.97
2023-12-19T13:41:46.713Z,10.99
2023-12-19T13:46:49.570Z,10.99
2023-12-19T13:51:51.511Z,10.99
2023-12-19T13:56:53.423Z,10.99
2023-12-19T14:01:55.620Z,10.98
2023-12-19T14:06:58.063Z,10.94
2023-12-19T14:12:00.046Z,10.91
2023-12-19T14:17:01.983Z,10.89
2023-12-19T14:27:08.709Z,10.91
2023-12-19T14:32:10.742Z,10.92
2023-12-19T14:37:13.961Z,10.94
2023-12-19T14:42:15.981Z,10.94
2023-12-19T14:47:18.012Z,10.92
2023-12-19T14:52:21.171Z,10.92
2023-12-19T14:57:26.570Z,10.89
2023-12-19T15:02:30.708Z,10.88
2023-12-19T15:07:32.713Z,10.88
2023-12-19T15:12:34.805Z,10.86
2023-12-19T15:17:37.040Z,10.85
2023-12-19T15:22:39.154Z,10.84
2023-12-19T15:27:41.277Z,10.82
2023-12-19T15:32:43.405Z,10.81
2023-12-19T15:37:45.536Z,10.77
2023-12-19T15:42:48.236Z,10.76
2023-12-19T15:47:50.253Z,10.73
2023-12-19T15:52:52.308Z,10.69
2023-12-19T15:57:55.878Z,10.64
2023-12-19T16:03:01.217Z,10.59
2023-12-19T16:08:04.444Z,10.56
2023-12-19T16:13:07.051Z,10.52
2023-12-19T16:18:09.158Z,10.49
2023-12-19T16:23:11.141Z,10.45
2023-12-19T16:28:13.121Z,10.40
2023-12-19T16:33:15.211Z,10.32
2023-12-19T16:38:17.303Z,10.24
2023-12-19T16:43:23.412Z,10.16
2023-12-19T16:48:25.499Z,10.11
2023-12-19T16:53:27.897Z,10.09
2023-12-19T16:58:39.823Z,10.07
2023-12-19T17:03:45.970Z,10.06
2023-12-19T17:08:48.916Z,10.03
2023-12-19T17:13:50.898Z,9.99
2023-12-19T17:18:52.954Z,9.94
2023-12-19T17:23:55.028Z,9.93
2023-12-19T17:28:57.249Z,9.91
2023-12-19T17:33:59.698Z,9.89
2023-12-19T17:39:02.121Z,9.87
2023-12-19T17:44:04.215Z,9.87
2023-12-19T17:49:06.314Z,9.85
2023-12-19T17:54:08.539Z,9.81
2023-12-19T17:59:11.248Z,9.78
2023-12-19T18:04:14.235Z,9.74
2023-12-19T18:09:16.321Z,9.73
2023-12-19T18:14:18.224Z,9.66
2023-12-19T18:19:20.992Z,9.64
2023-12-19T18:24:23.321Z,9.59
2023-12-19T18:29:26.033Z,9.55
2023-12-19T18:34:28.135Z,9.51
2023-12-19T18:39:32.347Z,9.48
2023-12-19T18:44:37.922Z,9.43
2023-12-19T18:49:39.973Z,9.37
2023-12-19T18:54:41.989Z,9.31
2023-12-19T18:59:44.918Z,9.26
2023-12-19T19:04:48.432Z,9.19
2023-12-19T19:09:52.510Z,9.12
2023-12-19T19:14:54.676Z,9.07
2023-12-19T19:20:02.692Z,9.03
2023-12-19T19:25:05.337Z,8.99
2023-12-19T19:30:08.482Z,8.98
2023-12-19T19:35:10.552Z,8.96
2023-12-19T19:40:12.752Z,8.94
2023-12-19T19:45:15.071Z,8.93
2023-12-19T19:50:17.904Z,8.89
2023-12-19T19:55:22.716Z,8.84
2023-12-19T20:00:26.067Z,8.83
2023-12-19T20:05:28.022Z,8.82
2023-12-19T20:10:30.387Z,8.80
2023-12-19T20:15:32.600Z,8.77
2023-12-19T20:20:34.539Z,8.76
2023-12-19T20:25:36.442Z,8.74
2023-12-19T20:30:38.612Z,8.72
2023-12-19T20:35:41.260Z,8.70
2023-12-19T20:40:43.279Z,8.68
2023-12-19T20:45:46.541Z,8.62
2023-12-19T20:50:48.813Z,8.59
2023-12-19T20:55:50.802Z,8.56
2023-12-19T21:01:05.517Z,8.53
2023-12-19T21:06:13.104Z,8.49
2023-12-19T21:11:15.064Z,8.42
2023-12-19T21:16:17.055Z,8.41
2023-12-19T21:21:19.115Z,8.40
2023-12-19T21:26:21.135Z,8.34
2023-12-19T21:31:24.218Z,8.29
2023-12-19T21:36:26.172Z,8.25
2023-12-19T21:41:28.650Z,8.23
2023-12-19T21:46:31.734Z,8.22
2023-12-19T21:51:38.151Z,8.21
2023-12-19T21:56:40.727Z,8.20
2023-12-19T22:01:46.712Z,8.19
2023-12-19T22:06:49.374Z,8.17
2023-12-19T22:11:52.903Z,8.16
2023-12-19T22:16:55.003Z,8.16
2023-12-19T22:21:58.208Z,8.15
2023-12-19T22:27:02.232Z,8.10
2023-12-19T22:32:04.612Z,8.08
2023-12-19T22:37:06.906Z,8.06
2023-12-19T22:42:09.165Z,8.02
2023-12-19T22:47:11.466Z,7.96
2023-12-19T22:52:13.436Z,7.94
2023-12-19T22:57:15.442Z,7.88
2023-12-19T23:02:17.788Z,7.85
2023-12-19T23:07:20.030Z,7.80
2023-12-19T23:12:22.123Z,7.73
2023-12-19T23:17:24.441Z,7.69
2023-12-19T23:22:27.183Z,7.66
2023-12-19T23:27:31.462Z,7.65
2023-12-19T23:32:34.810Z,7.63
2023-12-19T23:37:37.153Z,7.58
2023-12-19T23:42:39.652Z,7.57
2023-12-19T23:47:41.793Z,7.57
2023-12-19T23:53:10.529Z,7.53
2023-12-19T23:58:12.660Z,7.50
